sensor_id;sensor_type;location;lat;lon;timestamp;temperature;humidity
47658;DHT22;33958;48.404;10.598;2022-07-22T00:02:22;16.70;99.90
47658;DHT22;33958;48.404;10.598;2022-07-22T00:04:49;16.60;99.90
47658;DHT22;33958;48.404;10.598;2022-07-22T00:07:16;16.60;99.90
47658;DHT22;33958;48.404;10.598;2022-07-22T00:09:43;16.60;99.90
47658;DHT22;33958;48.404;10.598;2022-07-22T00:12:10;16.60;99.90
47658;DHT22;33958;48.404;10.598;2022-07-22T00:14:37;16.60;99.90
47658;DHT22;33958;48.404;10.598;2022-07-22T00:17:04;16.60;99.90
47658;DHT22;33958;48.404;10.598;2022-07-22T00:19:31;16.50;99.90
47658;DHT22;33958;48.404;10.598;2022-07-22T00:21:58;16.50;99.90
47658;DHT22;33958;48.404;10.598;2022-07-22T00:24:25;16.30;99.90
47658;DHT22;33958;48.404;10.598;2022-07-22T00:26:52;16.30;99.90
47658;DHT22;33958;48.404;10.598;2022-07-22T00:29:18;16.30;99.90
47658;DHT22;33958;48.404;10.598;2022-07-22T00:31:46;16.30;99.90
47658;DHT22;33958;48.404;10.598;2022-07-22T00:34:13;16.00;99.90
47658;DHT22;33958;48.404;10.598;2022-07-22T00:36:40;16.00;99.90
47658;DHT22;33958;48.404;10.598;2022-07-22T00:39:07;16.00;99.90
47658;DHT22;33958;48.404;10.598;2022-07-22T00:41:34;16.00;99.90
47658;DHT22;33958;48.404;10.598;2022-07-22T00:44:06;16.20;99.90
47658;DHT22;33958;48.404;10.598;2022-07-22T00:46:35;16.20;99.90
47658;DHT22;33958;48.404;10.598;2022-07-22T00:49:04;16.20;99.90
47658;DHT22;33958;48.404;10.598;2022-07-22T00:51:31;16.20;99.90
47658;DHT22;33958;48.404;10.598;2022-07-22T00:53:59;16.10;99.90
47658;DHT22;33958;48.404;10.598;2022-07-22T00:56:27;15.90;99.90
47658;DHT22;33958;48.404;10.598;2022-07-22T00:58:58;15.80;99.90
47658;DHT22;33958;48.404;10.598;2022-07-22T01:01:26;15.90;99.90
47658;DHT22;33958;48.404;10.598;2022-07-22T01:03:53;15.80;99.90
47658;DHT22;33958;48.404;10.598;2022-07-22T01:06:28;15.80;99.90
47658;DHT22;33958;48.404;10.598;2022-07-22T01:08:55;15.80;99.90
47658;DHT22;33958;48.404;10.598;2022-07-22T01:11:24;15.70;99.90
47658;DHT22;33958;48.404;10.598;2022-07-22T01:13:52;15.70;99.90
47658;DHT22;33958;48.404;10.598;2022-07-22T01:16:20;15.50;99.90
47658;DHT22;33958;48.404;10.598;2022-07-22T01:18:47;15.50;99.90
47658;DHT22;33958;48.404;10.598;2022-07-22T01:21:15;15.60;99.90
47658;DHT22;33958;48.404;10.598;2022-07-22T01:23:43;15.60;99.90
47658;DHT22;33958;48.404;10.598;2022-07-22T01:26:10;15.50;99.90
47658;DHT22;33958;48.404;10.598;2022-07-22T01:28:37;15.60;99.90
47658;DHT22;33958;48.404;10.598;2022-07-22T01:31:05;15.80;99.90
47658;DHT22;33958;48.404;10.598;2022-07-22T01:33:32;15.70;99.90
47658;DHT22;33958;48.404;10.598;2022-07-22T01:35:59;15.80;99.90
47658;DHT22;33958;48.404;10.598;2022-07-22T01:38:26;15.90;99.90
47658;DHT22;33958;48.404;10.598;2022-07-22T01:40:53;15.90;99.90
47658;DHT22;33958;48.404;10.598;2022-07-22T01:43:20;15.70;99.90
47658;DHT22;33958;48.404;10.598;2022-07-22T01:45:49;15.50;99.90
47658;DHT22;33958;48.404;10.598;2022-07-22T01:48:17;15.40;99.90
47658;DHT22;33958;48.404;10.598;2022-07-22T01:50:44;15.20;99.90
47658;DHT22;33958;48.404;10.598;2022-07-22T01:53:12;15.20;99.90
47658;DHT22;33958;48.404;10.598;2022-07-22T01:55:41;15.10;99.90
47658;DHT22;33958;48.404;10.598;2022-07-22T01:58:08;15.00;99.90
47658;DHT22;33958;48.404;10.598;2022-07-22T02:00:35;15.00;99.90
47658;DHT22;33958;48.404;10.598;2022-07-22T02:03:03;14.90;99.90
47658;DHT22;33958;48.404;10.598;2022-07-22T02:05:30;14.90;99.90
47658;DHT22;33958;48.404;10.598;2022-07-22T02:08:05;15.00;99.90
47658;DHT22;33958;48.404;10.598;2022-07-22T02:10:32;15.00;99.90
47658;DHT22;33958;48.404;10.598;2022-07-22T02:12:59;15.20;99.90
47658;DHT22;33958;48.404;10.598;2022-07-22T02:15:27;15.30;99.90
47658;DHT22;33958;48.404;10.598;2022-07-22T02:17:54;15.40;99.90
47658;DHT22;33958;48.404;10.598;2022-07-22T02:20:22;15.30;99.90
47658;DHT22;33958;48.404;10.598;2022-07-22T02:22:49;15.30;99.90
47658;DHT22;33958;48.404;10.598;2022-07-22T02:25:16;15.30;99.90
47658;DHT22;33958;48.404;10.598;2022-07-22T02:27:43;15.10;99.90
47658;DHT22;33958;48.404;10.598;2022-07-22T02:30:11;15.10;99.90
47658;DHT22;33958;48.404;10.598;2022-07-22T02:32:38;14.90;99.90
47658;DHT22;33958;48.404;10.598;2022-07-22T02:35:06;14.80;99.90
47658;DHT22;33958;48.404;10.598;2022-07-22T02:37:33;14.60;99.90
47658;DHT22;33958;48.404;10.598;2022-07-22T02:40:00;14.50;99.90
47658;DHT22;33958;48.404;10.598;2022-07-22T02:42:27;14.40;99.90
47658;DHT22;33958;48.404;10.598;2022-07-22T02:44:54;14.30;99.90
47658;DHT22;33958;48.404;10.598;2022-07-22T02:47:21;14.30;99.90
47658;DHT22;33958;48.404;10.598;2022-07-22T02:49:48;14.30;99.90
47658;DHT22;33958;48.404;10.598;2022-07-22T02:52:15;14.40;99.90
47658;DHT22;33958;48.404;10.598;2022-07-22T02:54:42;14.40;99.90
47658;DHT22;33958;48.404;10.598;2022-07-22T02:57:08;14.40;99.90
47658;DHT22;33958;48.404;10.598;2022-07-22T02:59:36;14.50;99.90
47658;DHT22;33958;48.404;10.598;2022-07-22T03:02:03;14.40;99.90
47658;DHT22;33958;48.404;10.598;2022-07-22T03:04:30;14.30;99.90
47658;DHT22;33958;48.404;10.598;2022-07-22T03:06:57;14.40;99.90
47658;DHT22;33958;48.404;10.598;2022-07-22T03:09:24;14.50;99.90
47658;DHT22;33958;48.404;10.598;2022-07-22T03:11:51;14.50;99.90
47658;DHT22;33958;48.404;10.598;2022-07-22T03:14:18;14.40;99.90
47658;DHT22;33958;48.404;10.598;2022-07-22T03:16:45;14.30;99.90
47658;DHT22;33958;48.404;10.598;2022-07-22T03:19:13;14.30;99.90
47658;DHT22;33958;48.404;10.598;2022-07-22T03:21:40;14.20;99.90
47658;DHT22;33958;48.404;10.598;2022-07-22T03:24:07;14.20;99.90
47658;DHT22;33958;48.404;10.598;2022-07-22T03:26:34;14.20;99.90
47658;DHT22;33958;48.404;10.598;2022-07-22T03:29:01;14.20;99.90
47658;DHT22;33958;48.404;10.598;2022-07-22T03:31:28;14.30;99.90
47658;DHT22;33958;48.404;10.598;2022-07-22T03:33:55;14.30;99.90
47658;DHT22;33958;48.404;10.598;2022-07-22T03:36:22;14.30;99.90
47658;DHT22;33958;48.404;10.598;2022-07-22T03:38:49;14.20;99.90
47658;DHT22;33958;48.404;10.598;2022-07-22T03:41:16;14.20;99.90
47658;DHT22;33958;48.404;10.598;2022-07-22T03:43:43;14.20;99.90
47658;DHT22;33958;48.404;10.598;2022-07-22T03:46:10;14.10;99.90
47658;DHT22;33958;48.404;10.598;2022-07-22T03:48:37;14.30;99.90
47658;DHT22;33958;48.404;10.598;2022-07-22T03:51:04;14.40;99.90
47658;DHT22;33958;48.404;10.598;2022-07-22T03:53:31;14.40;99.90
47658;DHT22;33958;48.404;10.598;2022-07-22T03:56:00;14.50;99.90
47658;DHT22;33958;48.404;10.598;2022-07-22T03:58:27;14.50;99.90
47658;DHT22;33958;48.404;10.598;2022-07-22T04:00:54;14.50;99.90
47658;DHT22;33958;48.404;10.598;2022-07-22T04:03:22;14.40;99.90
47658;DHT22;33958;48.404;10.598;2022-07-22T04:05:49;14.50;99.90
47658;DHT22;33958;48.404;10.598;2022-07-22T04:08:17;14.40;99.90
47658;DHT22;33958;48.404;10.598;2022-07-22T04:10:44;14.40;99.90
47658;DHT22;33958;48.404;10.598;2022-07-22T04:13:11;14.40;99.90
47658;DHT22;33958;48.404;10.598;2022-07-22T04:15:38;14.50;99.90
47658;DHT22;33958;48.404;10.598;2022-07-22T04:18:05;14.50;99.90
47658;DHT22;33958;48.404;10.598;2022-07-22T04:20:33;14.60;99.90
47658;DHT22;33958;48.404;10.598;2022-07-22T04:23:00;14.60;99.90
47658;DHT22;33958;48.404;10.598;2022-07-22T04:25:27;14.70;99.90
47658;DHT22;33958;48.404;10.598;2022-07-22T04:27:53;14.90;99.90
47658;DHT22;33958;48.404;10.598;2022-07-22T04:30:21;14.80;99.90
47658;DHT22;33958;48.404;10.598;2022-07-22T04:32:48;14.80;99.90
47658;DHT22;33958;48.404;10.598;2022-07-22T04:35:15;14.80;99.90
47658;DHT22;33958;48.404;10.598;2022-07-22T04:37:41;14.70;99.90
47658;DHT22;33958;48.404;10.598;2022-07-22T04:40:09;14.80;99.90
47658;DHT22;33958;48.404;10.598;2022-07-22T04:42:36;14.90;99.90
47658;DHT22;33958;48.404;10.598;2022-07-22T04:45:04;14.90;99.90
47658;DHT22;33958;48.404;10.598;2022-07-22T04:47:31;15.00;99.90
47658;DHT22;33958;48.404;10.598;2022-07-22T04:49:58;15.10;99.90
47658;DHT22;33958;48.404;10.598;2022-07-22T04:52:25;15.10;99.90
47658;DHT22;33958;48.404;10.598;2022-07-22T04:54:52;15.20;99.90
47658;DHT22;33958;48.404;10.598;2022-07-22T04:57:19;15.40;99.90
47658;DHT22;33958;48.404;10.598;2022-07-22T04:59:46;15.50;99.90
47658;DHT22;33958;48.404;10.598;2022-07-22T05:02:13;15.70;99.90
47658;DHT22;33958;48.404;10.598;2022-07-22T05:04:40;15.70;99.90
47658;DHT22;33958;48.404;10.598;2022-07-22T05:07:07;15.70;99.90
47658;DHT22;33958;48.404;10.598;2022-07-22T05:09:35;15.80;99.90
47658;DHT22;33958;48.404;10.598;2022-07-22T05:12:03;15.90;99.90
47658;DHT22;33958;48.404;10.598;2022-07-22T05:14:30;16.00;99.90
47658;DHT22;33958;48.404;10.598;2022-07-22T05:16:57;16.20;99.90
47658;DHT22;33958;48.404;10.598;2022-07-22T05:19:24;16.30;99.90
47658;DHT22;33958;48.404;10.598;2022-07-22T05:21:51;16.30;99.90
47658;DHT22;33958;48.404;10.598;2022-07-22T05:24:18;16.30;99.90
47658;DHT22;33958;48.404;10.598;2022-07-22T05:26:45;16.30;99.90
47658;DHT22;33958;48.404;10.598;2022-07-22T05:29:11;16.50;99.90
47658;DHT22;33958;48.404;10.598;2022-07-22T05:31:38;16.60;99.90
47658;DHT22;33958;48.404;10.598;2022-07-22T05:34:05;16.70;99.90
47658;DHT22;33958;48.404;10.598;2022-07-22T05:36:35;16.80;99.90
47658;DHT22;33958;48.404;10.598;2022-07-22T05:39:02;16.90;99.90
47658;DHT22;33958;48.404;10.598;2022-07-22T05:41:30;17.00;99.90
47658;DHT22;33958;48.404;10.598;2022-07-22T05:43:56;17.00;99.90
47658;DHT22;33958;48.404;10.598;2022-07-22T05:46:23;17.10;99.90
47658;DHT22;33958;48.404;10.598;2022-07-22T05:48:51;17.10;99.90
47658;DHT22;33958;48.404;10.598;2022-07-22T05:51:18;17.30;99.90
47658;DHT22;33958;48.404;10.598;2022-07-22T05:53:45;17.30;99.90
47658;DHT22;33958;48.404;10.598;2022-07-22T05:56:13;17.40;99.90
47658;DHT22;33958;48.404;10.598;2022-07-22T05:58:41;17.50;99.90
47658;DHT22;33958;48.404;10.598;2022-07-22T06:01:09;17.70;99.90
47658;DHT22;33958;48.404;10.598;2022-07-22T06:03:38;17.70;99.90
47658;DHT22;33958;48.404;10.598;2022-07-22T06:06:05;17.80;99.90
47658;DHT22;33958;48.404;10.598;2022-07-22T06:08:35;18.10;99.90
47658;DHT22;33958;48.404;10.598;2022-07-22T06:11:02;18.30;99.90
47658;DHT22;33958;48.404;10.598;2022-07-22T06:13:29;18.40;99.90
47658;DHT22;33958;48.404;10.598;2022-07-22T06:15:56;18.40;99.90
47658;DHT22;33958;48.404;10.598;2022-07-22T06:18:24;18.50;99.90
47658;DHT22;33958;48.404;10.598;2022-07-22T06:20:51;18.70;99.90
47658;DHT22;33958;48.404;10.598;2022-07-22T06:23:18;18.80;99.90
47658;DHT22;33958;48.404;10.598;2022-07-22T06:25:44;18.80;99.90
47658;DHT22;33958;48.404;10.598;2022-07-22T06:28:12;18.90;99.90
47658;DHT22;33958;48.404;10.598;2022-07-22T06:30:39;19.40;99.90
47658;DHT22;33958;48.404;10.598;2022-07-22T06:33:07;19.40;99.90
47658;DHT22;33958;48.404;10.598;2022-07-22T06:35:34;19.40;99.90
47658;DHT22;33958;48.404;10.598;2022-07-22T06:38:01;19.60;99.90
47658;DHT22;33958;48.404;10.598;2022-07-22T06:40:32;19.60;99.90
47658;DHT22;33958;48.404;10.598;2022-07-22T06:42:59;19.90;99.90
47658;DHT22;33958;48.404;10.598;2022-07-22T06:45:27;20.00;99.90
47658;DHT22;33958;48.404;10.598;2022-07-22T06:47:54;20.00;99.90
47658;DHT22;33958;48.404;10.598;2022-07-22T06:50:21;20.20;99.90
47658;DHT22;33958;48.404;10.598;2022-07-22T06:52:50;20.20;99.90
47658;DHT22;33958;48.404;10.598;2022-07-22T06:55:17;20.30;99.90
47658;DHT22;33958;48.404;10.598;2022-07-22T06:57:44;20.40;99.90
47658;DHT22;33958;48.404;10.598;2022-07-22T07:00:11;20.50;99.90
47658;DHT22;33958;48.404;10.598;2022-07-22T07:02:38;20.90;99.90
47658;DHT22;33958;48.404;10.598;2022-07-22T07:05:05;21.00;99.90
47658;DHT22;33958;48.404;10.598;2022-07-22T07:07:32;21.00;99.90
47658;DHT22;33958;48.404;10.598;2022-07-22T07:10:03;21.10;99.90
47658;DHT22;33958;48.404;10.598;2022-07-22T07:12:35;21.20;99.90
47658;DHT22;33958;48.404;10.598;2022-07-22T07:15:04;21.40;99.90
47658;DHT22;33958;48.404;10.598;2022-07-22T07:17:51;21.50;99.90
47658;DHT22;33958;48.404;10.598;2022-07-22T07:20:18;21.80;99.90
47658;DHT22;33958;48.404;10.598;2022-07-22T07:22:45;22.00;99.90
47658;DHT22;33958;48.404;10.598;2022-07-22T07:25:12;22.20;99.90
47658;DHT22;33958;48.404;10.598;2022-07-22T07:27:49;22.50;99.90
47658;DHT22;33958;48.404;10.598;2022-07-22T07:30:16;22.50;99.90
47658;DHT22;33958;48.404;10.598;2022-07-22T07:32:43;22.50;99.90
47658;DHT22;33958;48.404;10.598;2022-07-22T07:35:10;22.60;99.90
47658;DHT22;33958;48.404;10.598;2022-07-22T07:37:37;22.90;99.50
47658;DHT22;33958;48.404;10.598;2022-07-22T07:40:05;23.20;99.20
47658;DHT22;33958;48.404;10.598;2022-07-22T07:42:32;23.30;97.90
47658;DHT22;33958;48.404;10.598;2022-07-22T07:44:59;23.10;97.10
47658;DHT22;33958;48.404;10.598;2022-07-22T07:47:27;23.10;97.00
47658;DHT22;33958;48.404;10.598;2022-07-22T07:49:54;23.10;97.40
47658;DHT22;33958;48.404;10.598;2022-07-22T07:52:21;23.20;97.50
47658;DHT22;33958;48.404;10.598;2022-07-22T07:54:49;23.40;96.90
47658;DHT22;33958;48.404;10.598;2022-07-22T07:57:36;23.30;96.80
47658;DHT22;33958;48.404;10.598;2022-07-22T08:00:07;23.70;95.80
47658;DHT22;33958;48.404;10.598;2022-07-22T08:02:38;23.80;95.10
47658;DHT22;33958;48.404;10.598;2022-07-22T08:05:08;23.90;94.20
47658;DHT22;33958;48.404;10.598;2022-07-22T08:07:36;24.00;93.60
47658;DHT22;33958;48.404;10.598;2022-07-22T08:10:04;24.00;93.80
47658;DHT22;33958;48.404;10.598;2022-07-22T08:12:51;24.20;93.90
47658;DHT22;33958;48.404;10.598;2022-07-22T08:15:19;24.20;92.60
47658;DHT22;33958;48.404;10.598;2022-07-22T08:17:46;24.20;91.80
47658;DHT22;33958;48.404;10.598;2022-07-22T08:20:12;24.50;91.30
47658;DHT22;33958;48.404;10.598;2022-07-22T08:22:47;24.40;91.10
47658;DHT22;33958;48.404;10.598;2022-07-22T08:25:14;25.00;90.40
47658;DHT22;33958;48.404;10.598;2022-07-22T08:27:41;25.50;90.60
47658;DHT22;33958;48.404;10.598;2022-07-22T08:30:08;25.80;87.90
47658;DHT22;33958;48.404;10.598;2022-07-22T08:32:35;26.00;89.00
47658;DHT22;33958;48.404;10.598;2022-07-22T08:35:04;26.10;86.70
47658;DHT22;33958;48.404;10.598;2022-07-22T08:37:31;26.50;86.70
47658;DHT22;33958;48.404;10.598;2022-07-22T08:39:58;26.80;85.00
47658;DHT22;33958;48.404;10.598;2022-07-22T08:42:25;26.50;85.70
47658;DHT22;33958;48.404;10.598;2022-07-22T08:44:53;27.50;83.80
47658;DHT22;33958;48.404;10.598;2022-07-22T08:47:26;27.20;83.10
47658;DHT22;33958;48.404;10.598;2022-07-22T08:50:10;27.30;82.40
47658;DHT22;33958;48.404;10.598;2022-07-22T08:52:37;27.70;80.70
47658;DHT22;33958;48.404;10.598;2022-07-22T08:55:06;27.70;81.10
47658;DHT22;33958;48.404;10.598;2022-07-22T08:57:34;28.10;83.30
47658;DHT22;33958;48.404;10.598;2022-07-22T09:00:10;28.70;80.20
47658;DHT22;33958;48.404;10.598;2022-07-22T09:02:39;28.30;79.30
47658;DHT22;33958;48.404;10.598;2022-07-22T09:05:10;28.10;79.10
47658;DHT22;33958;48.404;10.598;2022-07-22T09:07:58;27.90;80.00
47658;DHT22;33958;48.404;10.598;2022-07-22T09:10:31;29.00;77.70
47658;DHT22;33958;48.404;10.598;2022-07-22T09:13:01;29.00;77.90
47658;DHT22;33958;48.404;10.598;2022-07-22T09:15:31;29.50;75.30
47658;DHT22;33958;48.404;10.598;2022-07-22T09:17:59;28.70;76.70
47658;DHT22;33958;48.404;10.598;2022-07-22T09:20:32;29.70;74.50
47658;DHT22;33958;48.404;10.598;2022-07-22T09:23:00;29.60;74.60
47658;DHT22;33958;48.404;10.598;2022-07-22T09:25:30;29.20;75.20
47658;DHT22;33958;48.404;10.598;2022-07-22T09:30:52;30.00;74.10
47658;DHT22;33958;48.404;10.598;2022-07-22T09:33:23;30.10;73.90
47658;DHT22;33958;48.404;10.598;2022-07-22T09:35:51;30.50;71.50
47658;DHT22;33958;48.404;10.598;2022-07-22T09:38:26;30.00;72.90
47658;DHT22;33958;48.404;10.598;2022-07-22T09:40:54;29.80;72.90
47658;DHT22;33958;48.404;10.598;2022-07-22T09:43:22;30.50;70.90
47658;DHT22;33958;48.404;10.598;2022-07-22T09:48:18;30.00;71.30
47658;DHT22;33958;48.404;10.598;2022-07-22T09:50:47;30.10;70.90
47658;DHT22;33958;48.404;10.598;2022-07-22T09:53:19;30.90;70.00
47658;DHT22;33958;48.404;10.598;2022-07-22T09:55:47;31.20;68.70
47658;DHT22;33958;48.404;10.598;2022-07-22T09:58:14;31.00;65.70
47658;DHT22;33958;48.404;10.598;2022-07-22T10:00:42;30.70;66.80
47658;DHT22;33958;48.404;10.598;2022-07-22T10:03:21;31.10;63.40
47658;DHT22;33958;48.404;10.598;2022-07-22T10:05:50;31.60;64.00
47658;DHT22;33958;48.404;10.598;2022-07-22T10:08:18;31.70;64.80
47658;DHT22;33958;48.404;10.598;2022-07-22T10:10:46;32.00;64.50
47658;DHT22;33958;48.404;10.598;2022-07-22T10:13:13;31.30;64.60
47658;DHT22;33958;48.404;10.598;2022-07-22T10:15:40;31.50;64.20
47658;DHT22;33958;48.404;10.598;2022-07-22T10:18:13;31.80;63.50
47658;DHT22;33958;48.404;10.598;2022-07-22T10:20:41;31.70;62.30
47658;DHT22;33958;48.404;10.598;2022-07-22T10:23:10;31.50;61.90
47658;DHT22;33958;48.404;10.598;2022-07-22T10:25:57;32.70;62.00
47658;DHT22;33958;48.404;10.598;2022-07-22T10:28:33;32.50;59.80
47658;DHT22;33958;48.404;10.598;2022-07-22T10:31:20;32.30;60.50
47658;DHT22;33958;48.404;10.598;2022-07-22T10:33:52;31.60;62.10
47658;DHT22;33958;48.404;10.598;2022-07-22T10:36:37;31.50;58.60
47658;DHT22;33958;48.404;10.598;2022-07-22T10:39:09;31.10;59.10
47658;DHT22;33958;48.404;10.598;2022-07-22T10:41:40;31.90;59.60
47658;DHT22;33958;48.404;10.598;2022-07-22T10:44:08;32.00;59.30
47658;DHT22;33958;48.404;10.598;2022-07-22T10:46:52;32.50;58.70
47658;DHT22;33958;48.404;10.598;2022-07-22T10:49:22;31.60;58.30
47658;DHT22;33958;48.404;10.598;2022-07-22T10:52:10;31.00;59.00
47658;DHT22;33958;48.404;10.598;2022-07-22T10:57:44;32.10;59.10
47658;DHT22;33958;48.404;10.598;2022-07-22T11:00:11;32.90;59.70
47658;DHT22;33958;48.404;10.598;2022-07-22T11:02:39;32.20;59.50
47658;DHT22;33958;48.404;10.598;2022-07-22T11:05:07;32.30;62.40
47658;DHT22;33958;48.404;10.598;2022-07-22T11:07:45;32.40;60.20
47658;DHT22;33958;48.404;10.598;2022-07-22T11:10:14;32.80;59.10
47658;DHT22;33958;48.404;10.598;2022-07-22T11:12:48;32.40;59.20
47658;DHT22;33958;48.404;10.598;2022-07-22T11:15:16;31.80;58.60
47658;DHT22;33958;48.404;10.598;2022-07-22T11:17:43;32.30;59.40
47658;DHT22;33958;48.404;10.598;2022-07-22T11:20:12;31.20;59.10
47658;DHT22;33958;48.404;10.598;2022-07-22T11:22:40;33.00;58.40
47658;DHT22;33958;48.404;10.598;2022-07-22T11:25:09;32.50;57.40
47658;DHT22;33958;48.404;10.598;2022-07-22T11:27:37;32.30;59.10
47658;DHT22;33958;48.404;10.598;2022-07-22T11:30:05;31.60;59.20
47658;DHT22;33958;48.404;10.598;2022-07-22T11:32:41;32.60;57.00
47658;DHT22;33958;48.404;10.598;2022-07-22T11:35:13;32.50;56.60
47658;DHT22;33958;48.404;10.598;2022-07-22T11:37:40;32.20;56.30
47658;DHT22;33958;48.404;10.598;2022-07-22T11:40:08;32.50;56.20
47658;DHT22;33958;48.404;10.598;2022-07-22T11:42:36;32.70;55.80
47658;DHT22;33958;48.404;10.598;2022-07-22T11:45:04;32.90;55.50
47658;DHT22;33958;48.404;10.598;2022-07-22T11:47:31;33.00;56.30
47658;DHT22;33958;48.404;10.598;2022-07-22T11:49:58;32.50;57.20
47658;DHT22;33958;48.404;10.598;2022-07-22T11:52:25;32.50;57.40
47658;DHT22;33958;48.404;10.598;2022-07-22T11:54:52;32.80;58.10
47658;DHT22;33958;48.404;10.598;2022-07-22T11:57:19;33.00;57.10
47658;DHT22;33958;48.404;10.598;2022-07-22T11:59:46;33.50;56.70
47658;DHT22;33958;48.404;10.598;2022-07-22T12:02:14;33.60;56.20
47658;DHT22;33958;48.404;10.598;2022-07-22T12:04:41;33.30;56.00
47658;DHT22;33958;48.404;10.598;2022-07-22T12:07:10;32.70;54.80
47658;DHT22;33958;48.404;10.598;2022-07-22T12:09:38;33.30;55.40
47658;DHT22;33958;48.404;10.598;2022-07-22T12:12:09;33.10;55.90
47658;DHT22;33958;48.404;10.598;2022-07-22T12:14:36;33.40;54.90
47658;DHT22;33958;48.404;10.598;2022-07-22T12:17:08;33.00;55.70
47658;DHT22;33958;48.404;10.598;2022-07-22T12:19:40;33.40;55.50
47658;DHT22;33958;48.404;10.598;2022-07-22T12:22:20;33.80;55.80
47658;DHT22;33958;48.404;10.598;2022-07-22T12:24:59;34.80;54.60
47658;DHT22;33958;48.404;10.598;2022-07-22T12:27:27;34.40;53.80
47658;DHT22;33958;48.404;10.598;2022-07-22T12:29:54;34.10;54.90
47658;DHT22;33958;48.404;10.598;2022-07-22T12:32:28;34.10;54.70
47658;DHT22;33958;48.404;10.598;2022-07-22T12:37:31;33.80;53.80
47658;DHT22;33958;48.404;10.598;2022-07-22T12:39:59;32.60;54.10
47658;DHT22;33958;48.404;10.598;2022-07-22T12:42:28;33.60;53.50
47658;DHT22;33958;48.404;10.598;2022-07-22T12:50:41;34.50;53.00
47658;DHT22;33958;48.404;10.598;2022-07-22T12:53:10;34.40;53.90
47658;DHT22;33958;48.404;10.598;2022-07-22T12:55:50;34.50;52.50
47658;DHT22;33958;48.404;10.598;2022-07-22T12:58:30;34.50;53.20
47658;DHT22;33958;48.404;10.598;2022-07-22T13:00:59;34.20;52.40
47658;DHT22;33958;48.404;10.598;2022-07-22T13:03:27;34.20;52.80
47658;DHT22;33958;48.404;10.598;2022-07-22T13:06:03;34.00;52.90
47658;DHT22;33958;48.404;10.598;2022-07-22T13:08:34;34.10;53.40
47658;DHT22;33958;48.404;10.598;2022-07-22T13:11:12;34.90;53.10
47658;DHT22;33958;48.404;10.598;2022-07-22T13:13:39;34.60;50.70
47658;DHT22;33958;48.404;10.598;2022-07-22T13:16:07;34.00;51.50
47658;DHT22;33958;48.404;10.598;2022-07-22T13:18:33;34.10;50.60
47658;DHT22;33958;48.404;10.598;2022-07-22T13:21:01;34.40;50.30
47658;DHT22;33958;48.404;10.598;2022-07-22T13:23:27;35.10;48.90
47658;DHT22;33958;48.404;10.598;2022-07-22T13:25:56;34.50;50.00
47658;DHT22;33958;48.404;10.598;2022-07-22T13:28:23;34.70;49.70
47658;DHT22;33958;48.404;10.598;2022-07-22T13:30:50;34.90;50.10
47658;DHT22;33958;48.404;10.598;2022-07-22T13:33:17;34.10;49.90
47658;DHT22;33958;48.404;10.598;2022-07-22T13:35:44;34.70;50.10
47658;DHT22;33958;48.404;10.598;2022-07-22T13:38:11;35.30;48.80
47658;DHT22;33958;48.404;10.598;2022-07-22T13:40:45;35.70;48.30
47658;DHT22;33958;48.404;10.598;2022-07-22T13:43:23;34.80;48.20
47658;DHT22;33958;48.404;10.598;2022-07-22T13:45:51;35.10;48.90
47658;DHT22;33958;48.404;10.598;2022-07-22T13:48:18;35.10;48.70
47658;DHT22;33958;48.404;10.598;2022-07-22T13:50:47;35.00;48.80
47658;DHT22;33958;48.404;10.598;2022-07-22T13:53:14;35.00;48.20
47658;DHT22;33958;48.404;10.598;2022-07-22T13:55:41;35.50;48.90
47658;DHT22;33958;48.404;10.598;2022-07-22T13:58:08;35.40;48.10
47658;DHT22;33958;48.404;10.598;2022-07-22T14:00:35;34.40;46.00
47658;DHT22;33958;48.404;10.598;2022-07-22T14:03:04;34.50;47.00
47658;DHT22;33958;48.404;10.598;2022-07-22T14:05:31;34.90;47.00
47658;DHT22;33958;48.404;10.598;2022-07-22T14:07:59;35.20;47.20
47658;DHT22;33958;48.404;10.598;2022-07-22T14:10:26;34.80;46.00
47658;DHT22;33958;48.404;10.598;2022-07-22T14:12:53;34.70;46.30
47658;DHT22;33958;48.404;10.598;2022-07-22T14:15:20;34.70;46.10
47658;DHT22;33958;48.404;10.598;2022-07-22T14:17:47;35.50;48.00
47658;DHT22;33958;48.404;10.598;2022-07-22T14:20:14;36.00;47.10
47658;DHT22;33958;48.404;10.598;2022-07-22T14:22:41;36.00;47.40
47658;DHT22;33958;48.404;10.598;2022-07-22T14:25:08;35.80;47.20
47658;DHT22;33958;48.404;10.598;2022-07-22T14:27:35;36.20;47.00
47658;DHT22;33958;48.404;10.598;2022-07-22T14:30:03;35.90;47.20
47658;DHT22;33958;48.404;10.598;2022-07-22T14:32:30;36.60;46.00
47658;DHT22;33958;48.404;10.598;2022-07-22T14:34:57;37.10;46.80
47658;DHT22;33958;48.404;10.598;2022-07-22T14:37:24;36.30;44.80
47658;DHT22;33958;48.404;10.598;2022-07-22T14:39:53;36.20;46.10
47658;DHT22;33958;48.404;10.598;2022-07-22T14:42:20;36.50;44.80
47658;DHT22;33958;48.404;10.598;2022-07-22T14:44:47;36.10;45.00
47658;DHT22;33958;48.404;10.598;2022-07-22T14:47:14;36.20;45.30
47658;DHT22;33958;48.404;10.598;2022-07-22T14:49:41;36.90;44.70
47658;DHT22;33958;48.404;10.598;2022-07-22T14:52:08;36.40;44.50
47658;DHT22;33958;48.404;10.598;2022-07-22T14:54:35;37.00;44.00
47658;DHT22;33958;48.404;10.598;2022-07-22T14:57:02;37.00;43.50
47658;DHT22;33958;48.404;10.598;2022-07-22T14:59:29;37.20;43.50
47658;DHT22;33958;48.404;10.598;2022-07-22T15:01:56;37.70;43.50
47658;DHT22;33958;48.404;10.598;2022-07-22T15:04:23;37.70;43.10
47658;DHT22;33958;48.404;10.598;2022-07-22T15:06:50;37.40;44.30
47658;DHT22;33958;48.404;10.598;2022-07-22T15:09:17;36.60;43.20
47658;DHT22;33958;48.404;10.598;2022-07-22T15:11:44;37.60;43.70
47658;DHT22;33958;48.404;10.598;2022-07-22T15:14:11;37.70;44.10
47658;DHT22;33958;48.404;10.598;2022-07-22T15:16:38;37.50;43.60
47658;DHT22;33958;48.404;10.598;2022-07-22T15:19:05;38.50;43.70
47658;DHT22;33958;48.404;10.598;2022-07-22T15:21:32;39.40;43.00
47658;DHT22;33958;48.404;10.598;2022-07-22T15:23:59;39.20;42.70
47658;DHT22;33958;48.404;10.598;2022-07-22T15:26:27;40.10;43.20
47658;DHT22;33958;48.404;10.598;2022-07-22T15:28:54;39.50;41.90
47658;DHT22;33958;48.404;10.598;2022-07-22T15:31:21;40.60;40.70
47658;DHT22;33958;48.404;10.598;2022-07-22T15:33:48;39.30;41.80
47658;DHT22;33958;48.404;10.598;2022-07-22T15:36:16;40.90;40.70
47658;DHT22;33958;48.404;10.598;2022-07-22T15:38:43;41.50;40.90
47658;DHT22;33958;48.404;10.598;2022-07-22T15:41:10;42.50;40.00